Time;durP1;ratioP1;P1;durP2;ratioP2;P2;SDS_P1;SDS_P2;PMS_P1;PMS_P2;Temp;Humidity;BMP_temperature;BMP_pressure;BME280_temperature;BME280_humidity;BME280_pressure;Samples;Min_cycle;Max_cycle;Signal;HPM_P1;HPM_P2
2023/01/06 00:00:45;;;;;;;669.97;615.97;;;10.20;99.90;;;;;;4959459;29;20458;-81
2023/01/06 00:03:12;;;;;;;680.23;625.73;;;10.30;99.90;;;;;;4959544;29;20452;-81
2023/01/06 00:05:39;;;;;;;691.50;637.83;;;10.20;99.90;;;;;;4959024;29;20476;-81
2023/01/06 00:08:05;;;;;;;670.70;618.20;;;10.30;99.90;;;;;;4962994;28;20451;-81
2023/01/06 00:10:35;;;;;;;663.17;612.90;;;10.30;99.90;;;;;;4963660;29;20486;-80
2023/01/06 00:13:01;;;;;;;665.23;617.03;;;10.40;99.90;;;;;;4963339;28;20533;-83
2023/01/06 00:15:29;;;;;;;641.17;595.37;;;10.40;99.90;;;;;;4963133;29;20479;-80
2023/01/06 00:17:55;;;;;;;639.43;595.10;;;10.30;99.90;;;;;;4963535;29;20502;-82
2023/01/06 00:20:22;;;;;;;632.07;589.80;;;10.40;99.90;;;;;;4963574;28;20455;-80
2023/01/06 00:22:49;;;;;;;619.27;578.60;;;10.40;99.90;;;;;;4963039;28;20976;-80
2023/01/06 00:25:16;;;;;;;622.10;580.80;;;10.40;99.90;;;;;;4962639;29;20476;-82
2023/01/06 00:27:44;;;;;;;648.67;605.57;;;10.40;99.90;;;;;;4963710;28;20460;-81
2023/01/06 00:30:12;;;;;;;650.93;606.03;;;10.30;99.90;;;;;;4963273;28;20507;-81
2023/01/06 00:32:38;;;;;;;663.77;618.27;;;10.30;99.90;;;;;;4963490;28;20461;-80
2023/01/06 00:35:06;;;;;;;688.57;641.77;;;10.30;99.90;;;;;;4962564;28;20999;-81
2023/01/06 00:37:32;;;;;;;682.30;635.60;;;10.20;99.90;;;;;;4963194;28;20459;-81
2023/01/06 00:39:59;;;;;;;677.17;630.93;;;10.20;99.90;;;;;;4963256;28;20459;-81
2023/01/06 00:42:26;;;;;;;671.13;625.97;;;10.20;99.90;;;;;;4962958;29;20460;-80
2023/01/06 00:44:54;;;;;;;688.43;639.53;;;10.30;99.90;;;;;;4962659;29;20484;-81
2023/01/06 00:47:21;;;;;;;675.97;626.77;;;10.20;99.90;;;;;;4962810;29;20466;-81
2023/01/06 00:49:48;;;;;;;681.67;631.37;;;10.20;99.90;;;;;;4963206;29;20480;-81
2023/01/06 00:52:15;;;;;;;688.53;639.50;;;10.20;99.90;;;;;;4962951;29;20464;-81
2023/01/06 00:54:42;;;;;;;681.40;634.03;;;10.20;99.90;;;;;;4962952;28;20483;-81
2023/01/06 00:57:10;;;;;;;670.10;625.23;;;10.30;99.90;;;;;;4963243;28;20511;-81
2023/01/06 00:59:36;;;;;;;650.30;607.10;;;10.30;99.90;;;;;;4963483;29;20452;-81
2023/01/06 01:02:05;;;;;;;661.27;618.73;;;10.30;99.90;;;;;;4962930;29;20452;-82
2023/01/06 01:04:32;;;;;;;661.33;619.80;;;10.30;99.90;;;;;;4962695;29;20460;-81
2023/01/06 01:06:59;;;;;;;645.30;606.40;;;10.40;99.90;;;;;;4962841;29;20466;-81
2023/01/06 01:09:29;;;;;;;636.20;598.50;;;10.40;99.90;;;;;;4962950;29;20483;-82
2023/01/06 01:12:11;;;;;;;614.63;577.73;;;10.30;99.90;;;;;;4962372;29;20455;-83
2023/01/06 01:14:40;;;;;;;580.90;547.47;;;10.40;99.90;;;;;;4962507;29;20476;-80
2023/01/06 01:17:09;;;;;;;534.97;506.83;;;10.30;99.90;;;;;;4962722;29;20482;-80
2023/01/06 01:19:37;;;;;;;503.40;478.33;;;10.40;99.90;;;;;;4961735;28;20452;-82
2023/01/06 01:22:04;;;;;;;459.17;439.07;;;10.40;99.90;;;;;;4962453;29;20466;-81
2023/01/06 01:24:31;;;;;;;426.83;409.00;;;10.40;99.90;;;;;;4961634;29;20459;-81
2023/01/06 01:26:58;;;;;;;395.37;379.97;;;10.40;99.90;;;;;;4962107;28;20463;-81
2023/01/06 01:29:26;;;;;;;383.03;368.10;;;10.50;99.90;;;;;;4962158;28;20863;-80
2023/01/06 01:31:53;;;;;;;366.60;353.00;;;10.50;99.90;;;;;;4962914;28;20465;-81
2023/01/06 01:34:22;;;;;;;349.23;335.63;;;10.50;99.90;;;;;;4962012;29;20464;-80
2023/01/06 01:36:50;;;;;;;353.50;340.80;;;10.50;99.90;;;;;;4960631;29;20464;-81
2023/01/06 01:39:19;;;;;;;352.67;340.10;;;10.50;99.90;;;;;;4960380;28;20459;-81
2023/01/06 01:41:46;;;;;;;393.83;379.20;;;10.40;99.90;;;;;;4960856;29;20464;-81
2023/01/06 01:44:50;;;;;;;372.40;358.87;;;10.50;99.90;;;;;;4960758;28;20460;-82
2023/01/06 01:47:22;;;;;;;374.00;360.43;;;10.50;99.90;;;;;;4961144;29;20482;-80
2023/01/06 01:49:53;;;;;;;362.60;349.83;;;10.40;99.90;;;;;;4961253;29;21110;-81
2023/01/06 01:52:21;;;;;;;333.07;321.67;;;10.40;99.90;;;;;;4960870;29;20456;-80
2023/01/06 01:54:50;;;;;;;318.57;307.63;;;10.50;99.90;;;;;;4961209;28;20479;-81
2023/01/06 01:57:19;;;;;;;315.17;304.13;;;10.50;99.90;;;;;;4961612;29;20456;-81
2023/01/06 01:59:46;;;;;;;299.37;288.87;;;10.50;99.90;;;;;;4960182;29;20459;-81
2023/01/06 02:02:15;;;;;;;280.07;270.53;;;10.50;99.90;;;;;;4961095;29;20460;-80
2023/01/06 02:04:45;;;;;;;274.87;265.53;;;10.50;99.90;;;;;;4960894;29;20835;-80
2023/01/06 02:07:14;;;;;;;266.63;258.20;;;10.50;99.90;;;;;;4960841;29;20466;-81
2023/01/06 02:09:46;;;;;;;221.57;213.93;;;10.50;99.90;;;;;;4960574;29;20487;-81
2023/01/06 02:12:13;;;;;;;274.57;265.63;;;10.50;99.90;;;;;;4960315;29;20460;-80
2023/01/06 02:14:40;;;;;;;190.83;184.63;;;10.50;99.90;;;;;;4960440;29;20475;-80
2023/01/06 02:17:25;;;;;;;111.67;107.83;;;10.50;99.90;;;;;;4960755;29;20459;-81
2023/01/06 02:20:23;;;;;;;52.07;49.17;;;10.50;99.90;;;;;;4961319;29;20451;-80
2023/01/06 02:23:17;;;;;;;21.63;20.30;;;10.50;99.90;;;;;;4949535;29;20546;-83
2023/01/06 02:26:11;;;;;;;22.23;21.03;;;10.60;99.90;;;;;;4960324;29;20486;-81
2023/01/06 02:29:06;;;;;;;10.53;9.63;;;10.60;99.90;;;;;;4957298;29;20478;-80
2023/01/06 02:31:53;;;;;;;9.10;7.90;;;10.60;99.90;;;;;;4960601;28;20488;-81
2023/01/06 02:34:31;;;;;;;5.13;3.90;;;10.60;99.90;;;;;;4960244;29;20456;-80
2023/01/06 02:37:06;;;;;;;8.00;2.90;;;10.60;99.90;;;;;;4960373;29;20456;-80
2023/01/06 02:39:44;;;;;;;5.60;2.50;;;10.70;99.90;;;;;;4960535;29;20463;-81
2023/01/06 02:42:20;;;;;;;3.97;1.93;;;10.70;99.90;;;;;;4960695;29;20462;-81
2023/01/06 02:44:54;;;;;;;8.97;2.03;;;10.70;99.90;;;;;;4960645;29;20856;-80
2023/01/06 02:47:31;;;;;;;11.40;2.50;;;10.60;99.90;;;;;;4960804;29;20458;-83
2023/01/06 02:50:04;;;;;;;11.33;2.63;;;10.60;99.90;;;;;;4960751;29;20516;-81
2023/01/06 02:52:41;;;;;;;4.80;1.63;;;10.60;99.90;;;;;;4960875;29;20981;-81
2023/01/06 02:55:12;;;;;;;8.77;2.30;;;10.60;99.90;;;;;;4960661;28;20479;-83
2023/01/06 02:57:44;;;;;;;16.30;3.10;;;10.60;99.90;;;;;;4960031;29;20455;-81
2023/01/06 03:00:16;;;;;;;8.63;4.37;;;10.60;99.90;;;;;;4961203;29;20543;-81
2023/01/06 03:02:49;;;;;;;6.47;4.17;;;10.50;99.90;;;;;;4960449;29;20456;-81
2023/01/06 03:05:17;;;;;;;10.57;5.43;;;10.60;99.90;;;;;;4960220;29;21185;-80
2023/01/06 03:07:46;;;;;;;6.43;5.83;;;10.60;99.90;;;;;;4960724;29;20644;-81
2023/01/06 03:10:17;;;;;;;10.77;10.07;;;10.60;99.90;;;;;;4960379;28;20480;-81
2023/01/06 03:12:50;;;;;;;18.20;17.20;;;10.60;99.90;;;;;;4961012;28;20499;-80
2023/01/06 03:15:17;;;;;;;26.43;25.03;;;10.50;99.90;;;;;;4960257;29;20484;-81
2023/01/06 03:17:45;;;;;;;26.50;25.03;;;10.50;99.90;;;;;;4960437;29;20460;-81
2023/01/06 03:20:13;;;;;;;30.73;29.50;;;10.50;99.90;;;;;;4960420;28;20452;-81
2023/01/06 03:22:41;;;;;;;39.40;37.40;;;10.50;99.90;;;;;;4960806;29;20648;-81
2023/01/06 03:25:09;;;;;;;30.17;28.97;;;10.50;99.90;;;;;;4959963;29;20476;-81
2023/01/06 03:27:36;;;;;;;35.70;34.20;;;10.60;99.90;;;;;;4960491;29;20467;-81
2023/01/06 03:30:08;;;;;;;30.17;28.50;;;10.50;99.90;;;;;;4960893;29;20476;-84
2023/01/06 03:32:43;;;;;;;27.00;25.50;;;10.60;99.90;;;;;;4960464;28;20511;-84
2023/01/06 03:35:27;;;;;;;21.43;19.50;;;10.60;99.90;;;;;;4960173;29;20479;-81
2023/01/06 03:38:02;;;;;;;24.67;23.30;;;10.60;99.90;;;;;;4960825;28;20456;-81
2023/01/06 03:40:32;;;;;;;18.97;17.97;;;10.60;99.90;;;;;;4960453;29;20470;-81
2023/01/06 03:43:14;;;;;;;19.43;18.53;;;10.60;99.90;;;;;;4959989;28;20888;-83
2023/01/06 03:46:02;;;;;;;19.03;18.03;;;10.60;99.90;;;;;;4959584;29;20547;-83
2023/01/06 03:48:38;;;;;;;16.67;15.77;;;10.60;99.90;;;;;;4960599;29;20962;-81
2023/01/06 03:51:12;;;;;;;13.33;12.40;;;10.60;99.90;;;;;;4959433;28;21032;-81
2023/01/06 03:53:46;;;;;;;13.67;12.60;;;10.70;99.90;;;;;;4960471;29;20464;-81
2023/01/06 03:56:19;;;;;;;19.23;18.33;;;10.70;99.90;;;;;;4959826;29;20482;-81
2023/01/06 03:58:50;;;;;;;21.00;19.80;;;10.60;99.90;;;;;;4960737;29;20456;-84
2023/01/06 04:01:17;;;;;;;18.07;16.63;;;10.60;99.90;;;;;;4960288;29;20463;-81
2023/01/06 04:03:46;;;;;;;17.17;16.23;;;10.60;99.90;;;;;;4961242;28;20467;-84
2023/01/06 04:06:14;;;;;;;8.80;8.30;;;10.60;99.90;;;;;;4960191;29;20479;-82
2023/01/06 04:08:40;;;;;;;9.90;9.00;;;10.60;99.90;;;;;;4959973;28;20463;-81
2023/01/06 04:11:08;;;;;;;12.33;11.40;;;10.60;99.90;;;;;;4960377;28;20480;-81
2023/01/06 04:13:33;;;;;;;13.03;12.13;;;10.50;99.90;;;;;;4960138;29;20459;-83
2023/01/06 04:16:00;;;;;;;12.67;8.17;;;10.60;99.90;;;;;;4959530;29;20482;-80
2023/01/06 04:18:27;;;;;;;8.53;7.73;;;10.60;99.90;;;;;;4960457;29;20684;-83
2023/01/06 04:20:53;;;;;;;6.27;3.80;;;10.60;99.90;;;;;;4959720;29;20819;-81
2023/01/06 04:23:22;;;;;;;6.73;3.50;;;10.70;99.90;;;;;;4960377;29;20455;-81
2023/01/06 04:25:48;;;;;;;4.73;2.67;;;10.70;99.90;;;;;;4959817;29;20475;-81
2023/01/06 04:28:15;;;;;;;5.57;2.50;;;10.80;99.90;;;;;;4960128;29;20478;-83
2023/01/06 04:30:42;;;;;;;9.10;2.40;;;10.80;99.90;;;;;;4959611;29;20840;-81
2023/01/06 04:33:08;;;;;;;4.90;1.80;;;10.70;99.90;;;;;;4959484;28;20460;-80
2023/01/06 04:35:35;;;;;;;4.13;1.70;;;10.80;99.90;;;;;;4958752;29;20852;-81
2023/01/06 04:38:02;;;;;;;8.87;2.20;;;10.80;99.90;;;;;;4958758;29;20459;-83
2023/01/06 04:40:30;;;;;;;6.20;1.80;;;10.70;99.90;;;;;;4959682;28;20514;-81
2023/01/06 04:43:06;;;;;;;6.37;1.53;;;10.70;99.90;;;;;;4960070;29;20467;-81
2023/01/06 04:45:33;;;;;;;9.50;1.93;;;10.70;99.90;;;;;;4959752;29;20480;-81
2023/01/06 04:48:00;;;;;;;2.90;1.30;;;10.70;99.90;;;;;;4959910;29;20462;-84
2023/01/06 04:50:27;;;;;;;11.60;2.13;;;10.60;99.90;;;;;;4960384;29;20496;-81
2023/01/06 04:52:53;;;;;;;3.60;1.70;;;10.60;99.90;;;;;;4959749;28;20463;-81
2023/01/06 04:55:20;;;;;;;10.30;2.00;;;10.70;99.90;;;;;;4964331;28;20475;-83
2023/01/06 04:57:49;;;;;;;5.73;1.10;;;10.70;99.90;;;;;;4963906;29;20988;-82
2023/01/06 05:00:16;;;;;;;5.70;1.50;;;10.70;99.90;;;;;;4963537;28;20458;-81
2023/01/06 05:02:43;;;;;;;5.70;1.93;;;10.70;99.90;;;;;;4963130;28;20460;-83
2023/01/06 05:05:10;;;;;;;8.20;1.90;;;10.70;99.90;;;;;;4963343;28;20467;-82
2023/01/06 05:07:37;;;;;;;4.07;1.77;;;10.70;99.90;;;;;;4964870;28;20958;-84
2023/01/06 05:10:05;;;;;;;3.60;1.63;;;10.70;99.90;;;;;;4964016;29;20837;-81
2023/01/06 05:12:32;;;;;;;5.27;1.80;;;10.60;99.90;;;;;;4963749;28;20459;-81
2023/01/06 05:15:00;;;;;;;5.77;1.60;;;10.60;99.90;;;;;;4964024;29;20467;-85
2023/01/06 05:17:27;;;;;;;11.93;2.13;;;10.60;99.90;;;;;;4963766;28;20464;-84
2023/01/06 05:20:06;;;;;;;4.20;1.77;;;10.60;99.90;;;;;;4963298;29;20460;-82
2023/01/06 05:26:39;;;;;;;6.00;1.90;;;10.60;99.90;;;;;;4879718;29;21022;-81
2023/01/06 05:29:23;;;;;;;4.73;2.30;;;10.60;99.90;;;;;;4816398;29;20467;-82
2023/01/06 05:32:09;;;;;;;;;;;;;;;;;;;;;
2023/01/06 05:35:23;;;;;;;5.07;2.60;;;10.60;99.90;;;;;;4960141;29;20534;-83
2023/01/06 05:37:54;;;;;;;3.60;2.00;;;10.60;99.90;;;;;;4945865;28;20459;-82
2023/01/06 05:40:21;;;;;;;5.30;2.00;;;10.60;99.90;;;;;;4962523;29;20467;-83
2023/01/06 05:42:47;;;;;;;4.67;2.20;;;10.60;99.90;;;;;;4962890;29;20961;-82
2023/01/06 05:45:14;;;;;;;3.87;1.90;;;10.70;99.90;;;;;;4962299;28;20485;-83
2023/01/06 05:51:41;;;;;;;4.20;2.10;;;10.70;99.90;;;;;;4955138;29;20498;-81
2023/01/06 05:54:39;;;;;;;3.80;2.00;;;10.70;99.90;;;;;;4962139;28;20452;-82
2023/01/06 05:57:27;;;;;;;3.50;1.97;;;10.70;99.90;;;;;;4959168;29;20488;-82
2023/01/06 05:59:54;;;;;;;3.33;1.60;;;10.70;99.90;;;;;;4962690;29;20452;-82
2023/01/06 06:02:20;;;;;;;4.50;1.93;;;10.60;99.90;;;;;;4962304;29;20474;-82
2023/01/06 06:04:47;;;;;;;5.30;1.83;;;10.60;99.90;;;;;;4961045;28;20464;-84
2023/01/06 06:07:14;;;;;;;3.03;1.33;;;10.60;99.90;;;;;;4961383;29;20456;-82
2023/01/06 06:10:10;;;;;;;;;;;;;;;;;;;;;
2023/01/06 06:12:38;;;;;;;3.50;1.80;;;10.60;99.90;;;;;;4961356;29;20526;-82
2023/01/06 06:15:05;;;;;;;4.60;2.10;;;10.60;99.90;;;;;;4961251;28;20551;-82
2023/01/06 06:17:32;;;;;;;4.87;2.37;;;10.60;99.90;;;;;;4961979;29;20452;-82
2023/01/06 06:19:59;;;;;;;8.70;2.07;;;10.60;99.90;;;;;;4962101;29;20460;-81
2023/01/06 06:22:25;;;;;;;6.73;1.87;;;10.60;99.90;;;;;;4962137;28;20460;-84
2023/01/06 06:24:52;;;;;;;3.80;1.90;;;10.60;99.90;;;;;;4961138;29;20487;-82
2023/01/06 06:27:19;;;;;;;4.83;2.13;;;10.60;99.90;;;;;;4961257;29;20965;-81
2023/01/06 06:29:47;;;;;;;5.97;1.60;;;10.70;99.90;;;;;;4961361;28;20459;-82
2023/01/06 06:32:14;;;;;;;5.63;1.63;;;10.70;99.90;;;;;;4962106;29;20495;-81
2023/01/06 06:34:40;;;;;;;4.20;1.30;;;10.70;99.90;;;;;;4960926;29;20471;-81
2023/01/06 06:37:07;;;;;;;5.00;1.57;;;10.80;99.90;;;;;;4961359;29;20460;-81
2023/01/06 06:39:34;;;;;;;5.20;1.50;;;10.80;99.90;;;;;;4960808;29;20463;-81
2023/01/06 06:42:00;;;;;;;5.17;1.80;;;10.80;99.90;;;;;;4960961;28;20459;-82
2023/01/06 06:44:30;;;;;;;4.07;1.77;;;10.80;99.90;;;;;;4960431;29;20452;-82
2023/01/06 06:46:59;;;;;;;4.07;1.60;;;10.80;99.90;;;;;;4961157;29;20459;-83
2023/01/06 06:49:26;;;;;;;4.90;1.70;;;10.70;99.90;;;;;;4961147;29;20462;-81
2023/01/06 06:51:53;;;;;;;6.93;2.00;;;10.60;99.90;;;;;;4960299;28;20483;-84
2023/01/06 06:54:19;;;;;;;4.77;2.07;;;10.60;99.90;;;;;;4960250;29;20668;-81
2023/01/06 06:56:46;;;;;;;3.40;1.90;;;10.60;99.90;;;;;;4960705;28;20546;-81
2023/01/06 06:59:13;;;;;;;4.57;1.97;;;10.60;99.90;;;;;;4960935;29;20456;-81
2023/01/06 07:01:39;;;;;;;6.07;2.23;;;10.70;99.90;;;;;;4961149;29;20467;-82
2023/01/06 07:04:08;;;;;;;4.00;2.77;;;10.70;99.90;;;;;;4960416;29;20477;-81
2023/01/06 07:06:35;;;;;;;6.43;2.90;;;10.60;99.90;;;;;;4960242;29;20483;-84
2023/01/06 07:09:02;;;;;;;5.77;2.70;;;10.50;99.90;;;;;;4960377;28;20455;-82
2023/01/06 07:11:29;;;;;;;6.30;2.77;;;10.60;99.90;;;;;;4961087;29;20490;-82
2023/01/06 07:13:56;;;;;;;5.40;2.70;;;10.50;99.90;;;;;;4961116;29;20460;-83
2023/01/06 07:16:25;;;;;;;5.60;3.67;;;10.30;99.90;;;;;;4960300;28;20848;-82
2023/01/06 07:18:52;;;;;;;5.00;3.60;;;10.30;99.90;;;;;;4960811;28;20468;-81
2023/01/06 07:21:20;;;;;;;3.80;3.40;;;10.40;99.90;;;;;;4960767;28;20451;-82
2023/01/06 07:23:47;;;;;;;3.80;3.40;;;10.40;99.90;;;;;;4960250;29;20462;-81
2023/01/06 07:26:14;;;;;;;4.73;4.23;;;10.40;99.90;;;;;;4961234;29;20480;-81
2023/01/06 07:28:41;;;;;;;4.10;3.70;;;10.50;99.90;;;;;;4960068;29;20447;-82
2023/01/06 07:31:08;;;;;;;6.77;3.77;;;10.60;99.90;;;;;;4960347;28;20831;-82
2023/01/06 07:33:34;;;;;;;4.30;2.80;;;10.60;99.90;;;;;;4960899;29;20978;-84
2023/01/06 07:36:01;;;;;;;3.23;2.37;;;10.60;99.90;;;;;;4960436;29;20480;-82
2023/01/06 07:38:29;;;;;;;4.97;2.33;;;10.60;99.90;;;;;;4961176;28;20463;-81
2023/01/06 07:41:00;;;;;;;4.47;2.20;;;10.60;99.90;;;;;;4961570;29;20460;-83
2023/01/06 07:43:26;;;;;;;3.60;2.00;;;10.60;99.90;;;;;;4961026;28;20464;-82
2023/01/06 07:45:53;;;;;;;4.37;2.77;;;10.70;99.90;;;;;;4960571;29;20482;-83
2023/01/06 07:48:20;;;;;;;4.47;2.00;;;10.70;99.90;;;;;;4961244;29;20456;-82
2023/01/06 07:50:47;;;;;;;4.17;2.20;;;10.70;99.90;;;;;;4960748;28;20466;-82
2023/01/06 07:53:13;;;;;;;4.53;2.20;;;10.80;99.90;;;;;;4961220;29;20487;-84
2023/01/06 07:55:41;;;;;;;3.87;1.77;;;10.90;99.90;;;;;;4960037;29;20480;-81
2023/01/06 07:58:09;;;;;;;3.70;1.60;;;10.80;99.90;;;;;;4961021;29;20456;-82
2023/01/06 08:00:37;;;;;;;3.40;1.70;;;10.90;99.90;;;;;;4960489;28;20456;-82
2023/01/06 08:03:04;;;;;;;5.93;1.97;;;10.90;99.90;;;;;;4960772;29;20460;-81
2023/01/06 08:05:31;;;;;;;6.10;1.90;;;11.00;99.90;;;;;;4961294;29;20472;-82
2023/01/06 08:07:58;;;;;;;4.07;1.33;;;11.00;99.90;;;;;;4961024;29;20854;-84
2023/01/06 08:10:25;;;;;;;3.00;1.20;;;11.10;99.90;;;;;;4961245;28;20451;-82
2023/01/06 08:12:53;;;;;;;4.40;1.47;;;11.10;99.90;;;;;;4960675;29;20487;-82
2023/01/06 08:15:19;;;;;;;3.67;1.57;;;11.10;99.90;;;;;;4958999;29;20482;-81
2023/01/06 08:17:46;;;;;;;5.27;1.87;;;11.10;99.90;;;;;;4960582;28;20460;-81
2023/01/06 08:20:13;;;;;;;3.50;1.50;;;11.10;99.90;;;;;;4961293;28;20834;-82
2023/01/06 08:22:40;;;;;;;3.77;1.30;;;11.10;99.90;;;;;;4960889;29;20458;-82
2023/01/06 08:25:08;;;;;;;3.37;1.40;;;11.20;99.90;;;;;;4949997;28;20666;-82
2023/01/06 08:27:34;;;;;;;3.10;1.20;;;11.10;99.90;;;;;;4941356;29;20467;-81
2023/01/06 08:30:02;;;;;;;3.10;1.40;;;11.20;99.90;;;;;;4944599;29;20497;-84
2023/01/06 08:32:29;;;;;;;3.63;1.50;;;11.10;99.90;;;;;;4953301;29;20490;-84
2023/01/06 08:34:56;;;;;;;5.33;1.60;;;11.20;99.90;;;;;;4964219;28;20486;-82
2023/01/06 08:37:23;;;;;;;2.90;1.30;;;11.30;99.90;;;;;;4964261;28;20462;-82
2023/01/06 08:39:49;;;;;;;6.83;2.33;;;11.30;99.90;;;;;;4964028;28;20467;-83
2023/01/06 08:42:17;;;;;;;3.40;1.67;;;11.30;99.90;;;;;;4964363;28;20452;-82
2023/01/06 08:44:44;;;;;;;5.53;1.73;;;11.40;99.90;;;;;;4964616;28;20472;-81
2023/01/06 08:47:12;;;;;;;4.67;1.70;;;11.40;99.90;;;;;;4964489;28;20451;-81
2023/01/06 08:49:39;;;;;;;7.10;1.80;;;11.40;99.90;;;;;;4964851;28;20463;-82
2023/01/06 08:52:06;;;;;;;6.03;1.80;;;11.40;99.90;;;;;;4964297;28;20483;-81
2023/01/06 08:54:33;;;;;;;4.20;2.20;;;11.50;99.90;;;;;;4963941;28;20547;-82
2023/01/06 08:57:00;;;;;;;3.30;1.90;;;11.50;99.90;;;;;;4964030;28;20460;-82
2023/01/06 08:59:26;;;;;;;5.07;1.90;;;11.50;99.90;;;;;;4964110;28;20470;-84
2023/01/06 09:01:53;;;;;;;4.43;2.27;;;11.50;99.90;;;;;;4964368;28;20451;-82
2023/01/06 09:04:22;;;;;;;4.60;1.80;;;11.60;99.90;;;;;;4962989;28;20468;-82
2023/01/06 09:06:49;;;;;;;3.20;1.60;;;11.70;99.90;;;;;;4972967;28;20496;-85
2023/01/06 09:09:16;;;;;;;4.13;1.90;;;11.80;99.90;;;;;;4964285;28;20460;-82
2023/01/06 09:11:44;;;;;;;4.63;2.50;;;11.90;99.90;;;;;;4964140;28;20486;-85
2023/01/06 09:14:12;;;;;;;3.70;1.97;;;11.80;99.90;;;;;;4965882;28;20211;-82
2023/01/06 09:16:39;;;;;;;3.30;2.10;;;11.80;99.90;;;;;;4964853;28;20480;-85
2023/01/06 09:19:09;;;;;;;3.97;2.80;;;11.60;99.90;;;;;;4964839;28;20452;-83
2023/01/06 09:21:38;;;;;;;3.63;3.23;;;11.50;99.90;;;;;;4965368;28;20460;-82
2023/01/06 09:24:06;;;;;;;6.00;5.50;;;11.40;99.90;;;;;;4965054;28;20456;-82
2023/01/06 09:26:33;;;;;;;5.83;5.43;;;11.30;99.90;;;;;;4965486;28;20539;-82
2023/01/06 09:28:59;;;;;;;5.77;5.37;;;11.30;99.90;;;;;;4965470;28;20471;-84
2023/01/06 09:31:26;;;;;;;11.80;11.10;;;11.20;99.90;;;;;;4965311;28;20463;-83
2023/01/06 09:33:53;;;;;;;11.03;10.43;;;11.30;99.90;;;;;;4964522;28;20460;-81
2023/01/06 09:36:20;;;;;;;14.13;13.40;;;11.40;99.90;;;;;;4965639;28;20515;-82
2023/01/06 09:38:48;;;;;;;22.83;21.83;;;11.40;99.90;;;;;;4964895;28;20463;-82
2023/01/06 09:41:38;;;;;;;22.40;21.47;;;11.50;99.90;;;;;;4965726;28;20465;-82
2023/01/06 09:44:10;;;;;;;60.43;58.30;;;11.20;99.90;;;;;;4965532;28;20463;-81
2023/01/06 09:46:40;;;;;;;71.57;69.07;;;11.00;99.90;;;;;;4964841;28;20479;-82
2023/01/06 09:49:13;;;;;;;202.70;196.10;;;10.90;99.90;;;;;;4964715;28;20463;-81
2023/01/06 09:51:41;;;;;;;229.73;222.10;;;10.90;99.90;;;;;;4964686;28;20464;-81
2023/01/06 09:54:16;;;;;;;245.53;237.10;;;10.80;99.90;;;;;;4964827;28;20463;-81
2023/01/06 09:56:46;;;;;;;269.60;260.13;;;10.80;99.90;;;;;;4964419;28;20465;-82
2023/01/06 09:59:19;;;;;;;279.73;269.67;;;10.70;99.90;;;;;;4964095;28;20455;-81
2023/01/06 10:01:50;;;;;;;217.23;209.77;;;10.80;99.90;;;;;;4964192;28;20460;-80
2023/01/06 10:04:19;;;;;;;217.77;210.17;;;10.80;99.90;;;;;;4964176;28;20971;-80
2023/01/06 10:06:54;;;;;;;229.20;220.80;;;10.80;99.90;;;;;;4964075;28;20468;-82
2023/01/06 10:09:30;;;;;;;189.83;183.37;;;10.90;99.90;;;;;;4963938;28;20459;-82
2023/01/06 10:12:05;;;;;;;198.77;191.87;;;10.90;99.90;;;;;;4964076;28;20547;-81
2023/01/06 10:14:43;;;;;;;170.57;164.27;;;11.00;99.90;;;;;;4963780;28;20451;-85
2023/01/06 10:17:27;;;;;;;151.30;146.00;;;11.20;99.90;;;;;;4963635;28;20455;-81
2023/01/06 10:20:07;;;;;;;194.07;187.50;;;11.20;99.90;;;;;;4964354;28;20463;-81
2023/01/06 10:22:45;;;;;;;249.90;241.03;;;11.20;99.90;;;;;;4964543;28;20436;-83
2023/01/06 10:25:19;;;;;;;263.93;254.27;;;11.20;99.90;;;;;;4964004;28;20487;-84
2023/01/06 10:27:50;;;;;;;228.17;220.20;;;11.30;99.90;;;;;;4964299;28;20456;-81
2023/01/06 10:30:20;;;;;;;223.70;216.10;;;11.40;99.90;;;;;;4964431;28;20467;-82
2023/01/06 10:32:50;;;;;;;230.40;222.83;;;11.40;99.90;;;;;;4963350;28;20475;-81
2023/01/06 10:35:20;;;;;;;292.83;283.10;;;11.30;99.90;;;;;;4962838;28;20476;-82
2023/01/06 10:37:48;;;;;;;352.83;340.73;;;11.20;99.90;;;;;;4963655;28;20451;-82
2023/01/06 10:40:24;;;;;;;426.37;410.50;;;11.10;99.90;;;;;;4963158;28;20471;-82
2023/01/06 10:42:56;;;;;;;506.07;485.67;;;11.10;99.90;;;;;;4963763;28;20458;-83
2023/01/06 10:45:25;;;;;;;445.10;427.90;;;11.10;99.90;;;;;;4963652;28;20468;-82
2023/01/06 10:47:52;;;;;;;447.00;429.47;;;11.20;99.90;;;;;;4963506;28;20959;-82
2023/01/06 10:50:19;;;;;;;431.07;414.57;;;11.20;99.90;;;;;;4963021;28;20466;-84
2023/01/06 10:52:48;;;;;;;350.17;337.07;;;11.30;99.90;;;;;;4963985;28;20496;-83
2023/01/06 10:55:42;;;;;;;348.30;335.93;;;11.40;99.90;;;;;;4963317;28;20868;-81
2023/01/06 10:58:22;;;;;;;296.23;286.23;;;11.60;99.90;;;;;;4964693;28;21109;-82
2023/01/06 11:00:57;;;;;;;220.43;213.17;;;11.60;99.90;;;;;;4963797;28;20459;-82
2023/01/06 11:03:24;;;;;;;146.57;141.73;;;11.70;99.90;;;;;;4963657;28;20950;-82
2023/01/06 11:06:08;;;;;;;121.67;117.73;;;11.60;99.90;;;;;;4963479;28;20478;-82
2023/01/06 11:08:36;;;;;;;82.97;80.17;;;11.60;99.90;;;;;;4963605;28;20958;-82
2023/01/06 11:11:11;;;;;;;66.23;63.90;;;11.70;99.90;;;;;;4963785;28;20519;-82
2023/01/06 11:13:39;;;;;;;67.07;64.67;;;11.70;99.90;;;;;;4962974;28;20474;-85
2023/01/06 11:16:17;;;;;;;54.50;52.17;;;11.80;99.90;;;;;;4962880;28;20479;-82
2023/01/06 11:18:49;;;;;;;45.77;44.07;;;11.80;99.90;;;;;;4962946;28;20471;-81
2023/01/06 11:21:16;;;;;;;38.70;37.20;;;11.70;99.90;;;;;;4963798;28;20547;-82
2023/01/06 11:23:45;;;;;;;33.23;31.93;;;11.80;99.90;;;;;;4963552;28;20456;-82
2023/01/06 11:26:18;;;;;;;22.50;21.50;;;11.90;99.90;;;;;;4963734;28;20924;-82
2023/01/06 11:28:46;;;;;;;29.63;28.43;;;11.80;99.90;;;;;;4964002;28;20539;-82
2023/01/06 11:31:20;;;;;;;19.13;18.20;;;11.90;99.90;;;;;;4963122;28;20816;-82
2023/01/06 11:33:50;;;;;;;18.03;17.03;;;12.00;99.90;;;;;;4963279;28;20483;-82
2023/01/06 11:36:19;;;;;;;15.80;14.93;;;11.90;99.90;;;;;;4962225;28;20487;-82
2023/01/06 11:38:48;;;;;;;11.93;11.33;;;11.90;99.90;;;;;;4963004;28;20962;-81
2023/01/06 11:41:26;;;;;;;13.60;12.90;;;12.00;99.90;;;;;;4963486;28;20462;-83
2023/01/06 11:43:56;;;;;;;11.90;11.20;;;12.00;99.90;;;;;;4963662;28;20459;-81
2023/01/06 11:46:25;;;;;;;11.13;10.53;;;12.10;99.90;;;;;;4963870;28;20539;-81
2023/01/06 11:48:59;;;;;;;12.93;12.27;;;12.00;99.90;;;;;;4963004;28;20456;-82
2023/01/06 11:51:46;;;;;;;11.60;11.00;;;12.00;99.90;;;;;;4963536;28;20459;-82
2023/01/06 11:54:24;;;;;;;18.77;17.97;;;11.90;99.90;;;;;;4962348;28;20503;-82
2023/01/06 11:57:21;;;;;;;45.93;44.03;;;11.70;99.90;;;;;;4962881;28;20506;-82
2023/01/06 12:00:17;;;;;;;115.47;111.67;;;11.50;99.90;;;;;;4960909;28;20460;-82
2023/01/06 12:02:50;;;;;;;253.90;246.00;;;11.40;99.90;;;;;;4963524;28;20495;-81
2023/01/06 12:05:25;;;;;;;432.60;417.20;;;11.30;99.90;;;;;;4966131;28;20502;-81
2023/01/06 12:07:54;;;;;;;515.17;494.63;;;11.20;99.90;;;;;;4965705;28;20443;-83
2023/01/06 12:10:27;;;;;;;506.87;486.47;;;11.30;99.90;;;;;;4966445;28;20455;-82
2023/01/06 12:12:55;;;;;;;541.77;518.70;;;11.30;99.90;;;;;;4965362;28;20872;-84
2023/01/06 12:15:23;;;;;;;581.30;554.13;;;11.30;99.90;;;;;;4965319;28;20497;-84
2023/01/06 12:17:57;;;;;;;591.93;563.23;;;11.40;99.90;;;;;;4965264;28;20486;-83
2023/01/06 12:20:27;;;;;;;602.47;572.67;;;11.50;99.90;;;;;;4965718;28;20470;-82
2023/01/06 12:22:58;;;;;;;613.17;582.77;;;11.40;99.90;;;;;;4965802;28;20452;-81
2023/01/06 12:25:27;;;;;;;642.90;610.00;;;11.30;99.90;;;;;;4964698;28;20476;-81
2023/01/06 12:27:59;;;;;;;655.53;620.37;;;11.30;99.90;;;;;;4964962;28;20468;-82
2023/01/06 12:30:32;;;;;;;654.10;620.40;;;11.30;99.90;;;;;;4965383;28;20456;-81
2023/01/06 12:33:05;;;;;;;672.00;634.57;;;11.30;99.90;;;;;;4964963;28;20486;-81
2023/01/06 12:35:37;;;;;;;670.70;632.33;;;11.40;99.90;;;;;;4964627;28;21049;-82
2023/01/06 12:38:11;;;;;;;655.73;620.47;;;11.50;99.90;;;;;;4965380;28;20450;-82
2023/01/06 12:40:46;;;;;;;628.97;598.27;;;11.50;99.90;;;;;;4964695;28;20561;-82
2023/01/06 12:43:17;;;;;;;640.77;608.60;;;11.40;99.90;;;;;;4965742;28;20451;-82
2023/01/06 12:45:52;;;;;;;647.33;613.37;;;11.30;99.90;;;;;;4965297;28;20926;-83
2023/01/06 12:48:26;;;;;;;659.80;624.20;;;11.20;99.90;;;;;;4964570;28;20455;-82
2023/01/06 12:50:59;;;;;;;665.60;629.10;;;11.10;99.90;;;;;;4964910;28;20455;-82
2023/01/06 12:53:30;;;;;;;678.43;639.07;;;11.10;99.90;;;;;;4964391;28;20494;-82
2023/01/06 12:56:10;;;;;;;692.93;649.37;;;11.10;99.90;;;;;;4964613;28;20476;-81